Time;durP1;ratioP1;P1;durP2;ratioP2;P2;SDS_P1;SDS_P2;PMS_P1;PMS_P2;Temp;Humidity;BMP_temperature;BMP_pressure;BME280_temperature;BME280_humidity;BME280_pressure;Samples;Min_cycle;Max_cycle;Signal;HPM_P1;HPM_P2
2023/09/30 00:00:01;;;;;;;8.15;4.50;;;;;;;;;;5080785;28;20093;-64
2023/09/30 00:02:29;;;;;;;7.57;5.00;;;;;;;;;;5084023;28;20044;-63
2023/09/30 00:04:58;;;;;;;7.38;4.85;;;;;;;;;;5082913;28;20543;-64
2023/09/30 00:07:26;;;;;;;7.60;4.25;;;;;;;;;;5082251;28;20455;-63
2023/09/30 00:09:55;;;;;;;7.70;4.85;;;;;;;;;;5083875;28;20336;-63
2023/09/30 00:12:25;;;;;;;7.80;5.07;;;;;;;;;;5082923;28;20387;-63
2023/09/30 00:14:53;;;;;;;6.97;4.55;;;;;;;;;;5079296;28;20542;-64
2023/09/30 00:17:22;;;;;;;6.43;4.32;;;;;;;;;;5083052;28;20044;-63
2023/09/30 00:19:50;;;;;;;6.68;4.35;;;;;;;;;;5081262;28;20105;-64
2023/09/30 00:22:19;;;;;;;7.43;5.10;;;;;;;;;;5085574;28;20073;-63
2023/09/30 00:24:48;;;;;;;6.93;4.55;;;;;;;;;;5082662;28;20082;-64
2023/09/30 00:27:16;;;;;;;10.00;4.25;;;;;;;;;;5088436;28;20097;-63
2023/09/30 00:29:46;;;;;;;8.25;4.85;;;;;;;;;;5081483;28;20049;-63
2023/09/30 00:32:14;;;;;;;8.07;4.40;;;;;;;;;;5082173;28;20117;-63
2023/09/30 00:34:42;;;;;;;6.68;4.53;;;;;;;;;;5087687;28;20048;-64
2023/09/30 00:37:11;;;;;;;7.68;4.63;;;;;;;;;;5089120;28;20070;-64
2023/09/30 00:39:39;;;;;;;7.63;4.72;;;;;;;;;;5083849;28;20048;-64
2023/09/30 00:42:08;;;;;;;8.52;4.47;;;;;;;;;;5085095;28;20105;-63
2023/09/30 00:44:36;;;;;;;6.95;4.57;;;;;;;;;;5082979;28;20051;-64
2023/09/30 00:47:06;;;;;;;5.60;3.95;;;;;;;;;;5081800;28;20474;-64
2023/09/30 00:49:34;;;;;;;8.40;4.88;;;;;;;;;;5085968;28;20055;-65
2023/09/30 00:52:04;;;;;;;7.10;4.20;;;;;;;;;;5086575;28;20544;-63
2023/09/30 00:54:32;;;;;;;5.82;3.88;;;;;;;;;;5082483;28;20078;-63
2023/09/30 00:57:01;;;;;;;6.93;4.43;;;;;;;;;;5084024;28;20513;-64
2023/09/30 00:59:32;;;;;;;6.47;4.35;;;;;;;;;;5080623;28;20207;-66
2023/09/30 01:02:01;;;;;;;6.38;4.05;;;;;;;;;;5084214;28;20052;-64
2023/09/30 01:04:31;;;;;;;7.05;4.47;;;;;;;;;;5082877;28;20055;-64
2023/09/30 01:07:00;;;;;;;9.50;4.70;;;;;;;;;;5084829;28;20805;-64
2023/09/30 01:09:28;;;;;;;7.63;4.93;;;;;;;;;;5080677;28;20485;-64
2023/09/30 01:11:57;;;;;;;7.47;4.68;;;;;;;;;;5085681;28;20048;-64
2023/09/30 01:14:26;;;;;;;6.07;3.88;;;;;;;;;;5082142;28;20136;-65
2023/09/30 01:16:54;;;;;;;7.40;4.30;;;;;;;;;;5083003;28;20332;-64
2023/09/30 01:19:24;;;;;;;6.78;4.40;;;;;;;;;;5083247;28;20973;-64
2023/09/30 01:21:56;;;;;;;6.43;4.13;;;;;;;;;;5085500;28;20485;-64
2023/09/30 01:24:24;;;;;;;7.22;4.68;;;;;;;;;;5083405;28;20073;-63
2023/09/30 01:26:53;;;;;;;6.30;4.45;;;;;;;;;;5083048;28;20420;-64
2023/09/30 01:29:22;;;;;;;8.77;4.90;;;;;;;;;;5084313;28;20044;-65
2023/09/30 01:31:50;;;;;;;7.43;4.53;;;;;;;;;;5081410;28;20481;-65
2023/09/30 01:34:19;;;;;;;8.32;4.60;;;;;;;;;;5081349;28;20048;-66
2023/09/30 01:36:48;;;;;;;7.88;4.60;;;;;;;;;;5082513;28;20057;-64
2023/09/30 01:39:17;;;;;;;7.85;4.25;;;;;;;;;;5083209;28;20132;-64
2023/09/30 01:41:46;;;;;;;8.70;5.15;;;;;;;;;;5083914;28;20052;-64
2023/09/30 01:44:14;;;;;;;7.70;4.47;;;;;;;;;;5080937;28;20055;-63
2023/09/30 01:46:43;;;;;;;7.03;4.35;;;;;;;;;;5082976;28;20051;-64
2023/09/30 01:49:11;;;;;;;7.70;4.88;;;;;;;;;;5083900;28;20052;-65
2023/09/30 01:51:40;;;;;;;7.72;4.40;;;;;;;;;;5083330;28;20090;-65
2023/09/30 01:54:08;;;;;;;8.63;4.47;;;;;;;;;;5079500;28;20067;-64
2023/09/30 01:56:38;;;;;;;8.30;4.55;;;;;;;;;;5081759;28;20735;-62
2023/09/30 01:59:06;;;;;;;8.13;4.68;;;;;;;;;;5081528;28;20044;-64
2023/09/30 02:01:35;;;;;;;9.95;4.85;;;;;;;;;;5082210;28;20107;-63
2023/09/30 02:04:05;;;;;;;6.88;4.38;;;;;;;;;;5080189;28;20040;-65
2023/09/30 02:06:34;;;;;;;7.97;4.53;;;;;;;;;;5083086;28;20552;-64
2023/09/30 02:09:04;;;;;;;7.82;4.38;;;;;;;;;;5081013;28;20052;-64
2023/09/30 02:11:32;;;;;;;8.02;5.03;;;;;;;;;;5081872;28;20048;-64
2023/09/30 02:14:03;;;;;;;6.47;4.10;;;;;;;;;;5081241;28;20056;-64
2023/09/30 02:16:31;;;;;;;7.70;4.90;;;;;;;;;;5082950;28;20432;-64
2023/09/30 02:19:00;;;;;;;6.18;4.30;;;;;;;;;;5082288;28;20056;-64
2023/09/30 02:21:28;;;;;;;7.65;4.13;;;;;;;;;;5081852;28;20133;-63
2023/09/30 02:23:57;;;;;;;9.23;4.47;;;;;;;;;;5083312;28;20488;-63
2023/09/30 02:26:27;;;;;;;7.38;5.00;;;;;;;;;;5084814;28;20139;-63
2023/09/30 02:28:55;;;;;;;7.20;4.57;;;;;;;;;;5081394;28;20071;-64
2023/09/30 02:31:25;;;;;;;8.68;5.03;;;;;;;;;;5080987;28;20567;-64
2023/09/30 02:33:54;;;;;;;7.13;4.65;;;;;;;;;;5080094;28;20059;-65
2023/09/30 02:36:22;;;;;;;9.57;4.70;;;;;;;;;;5083254;28;20043;-64
2023/09/30 02:38:51;;;;;;;9.07;5.40;;;;;;;;;;5084218;28;20047;-64
2023/09/30 02:41:19;;;;;;;7.97;4.70;;;;;;;;;;5081578;28;20496;-65
2023/09/30 02:43:47;;;;;;;6.68;4.53;;;;;;;;;;5079088;28;20129;-64
2023/09/30 02:46:16;;;;;;;7.15;4.53;;;;;;;;;;5080021;28;20105;-64
2023/09/30 02:48:46;;;;;;;7.45;4.95;;;;;;;;;;5080898;28;20040;-64
2023/09/30 02:51:14;;;;;;;7.72;5.10;;;;;;;;;;5084038;28;20048;-62
2023/09/30 02:53:43;;;;;;;7.30;4.55;;;;;;;;;;5080540;28;20044;-64
2023/09/30 02:56:11;;;;;;;7.07;4.63;;;;;;;;;;5080759;28;20052;-65
2023/09/30 02:58:40;;;;;;;8.27;4.68;;;;;;;;;;5078328;28;20059;-65
2023/09/30 03:01:09;;;;;;;7.80;4.47;;;;;;;;;;5078456;28;20036;-64
2023/09/30 03:03:39;;;;;;;7.15;5.00;;;;;;;;;;5080750;28;20044;-64
2023/09/30 03:06:10;;;;;;;8.40;5.10;;;;;;;;;;5080635;28;20079;-64
2023/09/30 03:08:38;;;;;;;7.60;4.40;;;;;;;;;;5080229;28;20044;-64
2023/09/30 03:11:07;;;;;;;9.27;5.10;;;;;;;;;;5082007;28;20040;-64
2023/09/30 03:13:35;;;;;;;6.88;4.35;;;;;;;;;;5079068;28;20374;-63
2023/09/30 03:16:04;;;;;;;7.35;4.63;;;;;;;;;;5080025;28;20088;-64
2023/09/30 03:18:33;;;;;;;8.95;4.80;;;;;;;;;;5079279;28;20048;-64
2023/09/30 03:21:08;;;;;;;8.10;4.22;;;;;;;;;;5082146;28;20519;-64
2023/09/30 03:23:38;;;;;;;7.28;4.55;;;;;;;;;;5080599;28;20044;-64
2023/09/30 03:26:09;;;;;;;6.75;4.50;;;;;;;;;;5080636;28;20071;-63
2023/09/30 03:28:38;;;;;;;7.40;4.40;;;;;;;;;;5080056;28;20048;-64
2023/09/30 03:31:07;;;;;;;8.10;4.90;;;;;;;;;;5077340;28;20052;-64
2023/09/30 03:33:36;;;;;;;7.55;4.55;;;;;;;;;;5078627;28;20359;-64
2023/09/30 03:36:05;;;;;;;9.25;4.95;;;;;;;;;;5080208;28;20052;-64
2023/09/30 03:38:34;;;;;;;11.07;4.32;;;;;;;;;;5081110;28;20056;-64
2023/09/30 03:41:04;;;;;;;7.78;4.88;;;;;;;;;;5078488;28;20476;-63
2023/09/30 03:43:34;;;;;;;6.60;4.40;;;;;;;;;;5078377;28;20124;-64
2023/09/30 03:46:02;;;;;;;8.82;5.38;;;;;;;;;;5081048;28;20043;-64
2023/09/30 03:48:31;;;;;;;7.97;4.35;;;;;;;;;;5080467;28;20079;-64
2023/09/30 03:50:59;;;;;;;7.60;4.40;;;;;;;;;;5081759;28;20043;-64
2023/09/30 03:53:28;;;;;;;7.53;4.82;;;;;;;;;;5079790;28;20454;-64
2023/09/30 03:55:57;;;;;;;8.80;4.70;;;;;;;;;;5081374;28;20165;-65
2023/09/30 03:58:26;;;;;;;7.55;4.80;;;;;;;;;;5079166;28;20450;-64
2023/09/30 04:00:56;;;;;;;6.20;4.13;;;;;;;;;;5079685;28;20137;-64
2023/09/30 04:03:24;;;;;;;7.65;4.75;;;;;;;;;;5077873;28;20631;-65
2023/09/30 04:05:53;;;;;;;6.75;4.13;;;;;;;;;;5080539;28;20040;-64
2023/09/30 04:08:22;;;;;;;6.57;4.82;;;;;;;;;;5078041;28;20149;-64
2023/09/30 04:10:50;;;;;;;6.45;4.65;;;;;;;;;;5078683;28;20052;-64
2023/09/30 04:13:20;;;;;;;6.75;4.55;;;;;;;;;;5079180;28;21091;-64
2023/09/30 04:15:50;;;;;;;7.18;4.57;;;;;;;;;;5079100;28;20052;-65
2023/09/30 04:18:21;;;;;;;5.97;4.43;;;;;;;;;;5081242;28;20044;-63
2023/09/30 04:20:51;;;;;;;6.60;4.20;;;;;;;;;;5078876;28;20052;-64
2023/09/30 04:23:20;;;;;;;8.02;4.93;;;;;;;;;;5077288;28;20062;-65
2023/09/30 04:25:49;;;;;;;7.93;4.75;;;;;;;;;;5081217;28;20167;-64
2023/09/30 04:28:20;;;;;;;7.35;5.00;;;;;;;;;;5080364;28;20048;-64
2023/09/30 04:30:50;;;;;;;9.70;5.22;;;;;;;;;;5078759;28;20565;-65
2023/09/30 04:33:20;;;;;;;7.57;4.82;;;;;;;;;;5079242;28;20383;-64
2023/09/30 04:35:48;;;;;;;6.30;5.00;;;;;;;;;;5079233;28;20480;-65
2023/09/30 04:38:17;;;;;;;8.65;5.22;;;;;;;;;;5081994;28;20089;-64
2023/09/30 04:40:48;;;;;;;9.95;6.13;;;;;;;;;;5077389;28;20749;-64
2023/09/30 04:43:17;;;;;;;9.27;5.28;;;;;;;;;;5078372;28;20087;-62
2023/09/30 04:45:46;;;;;;;6.70;4.45;;;;;;;;;;5076244;28;20080;-62
2023/09/30 04:48:16;;;;;;;7.68;5.40;;;;;;;;;;5078614;28;20055;-63
2023/09/30 04:50:45;;;;;;;9.60;4.90;;;;;;;;;;5080218;28;20056;-62
2023/09/30 04:53:13;;;;;;;8.57;5.30;;;;;;;;;;5081315;28;20084;-62
2023/09/30 04:55:42;;;;;;;7.40;5.20;;;;;;;;;;5082386;28;20135;-62
2023/09/30 04:58:10;;;;;;;6.25;4.43;;;;;;;;;;5082351;28;20123;-62
2023/09/30 05:00:39;;;;;;;8.48;4.80;;;;;;;;;;5080734;28;20533;-63
2023/09/30 05:03:07;;;;;;;7.68;5.25;;;;;;;;;;5083205;28;20205;-62
2023/09/30 05:05:37;;;;;;;8.25;5.20;;;;;;;;;;5076236;28;20044;-62
2023/09/30 05:08:07;;;;;;;7.55;4.57;;;;;;;;;;5087998;28;20130;-62
2023/09/30 05:10:35;;;;;;;5.97;4.45;;;;;;;;;;5084161;28;20116;-62
2023/09/30 05:13:03;;;;;;;6.40;4.60;;;;;;;;;;5085843;28;20080;-62
2023/09/30 05:15:35;;;;;;;7.55;4.75;;;;;;;;;;5084117;28;20125;-62
2023/09/30 05:18:04;;;;;;;9.35;4.72;;;;;;;;;;5085367;28;20044;-62
2023/09/30 05:20:36;;;;;;;6.25;4.03;;;;;;;;;;5085379;28;20043;-62
2023/09/30 05:23:07;;;;;;;6.68;4.43;;;;;;;;;;5083607;28;20057;-62
2023/09/30 05:25:36;;;;;;;8.40;4.63;;;;;;;;;;5085133;28;20048;-62
2023/09/30 05:28:06;;;;;;;5.05;3.70;;;;;;;;;;5086442;28;20559;-62
2023/09/30 05:30:35;;;;;;;8.27;4.78;;;;;;;;;;5083296;28;20503;-62
2023/09/30 05:33:04;;;;;;;6.70;4.30;;;;;;;;;;5086700;28;20044;-62
2023/09/30 05:35:33;;;;;;;6.13;3.72;;;;;;;;;;5082336;28;20475;-63
2023/09/30 05:38:03;;;;;;;5.78;3.45;;;;;;;;;;5083846;28;20040;-63
2023/09/30 05:40:33;;;;;;;7.82;4.50;;;;;;;;;;5084535;28;20544;-62
2023/09/30 05:43:03;;;;;;;7.38;4.55;;;;;;;;;;5086175;28;20187;-62
2023/09/30 05:45:34;;;;;;;6.53;4.50;;;;;;;;;;5084084;28;20063;-63
2023/09/30 05:48:05;;;;;;;6.97;3.65;;;;;;;;;;5085223;28;20796;-63
2023/09/30 05:50:34;;;;;;;7.47;4.13;;;;;;;;;;5078032;28;20559;-63
2023/09/30 05:53:04;;;;;;;6.55;4.28;;;;;;;;;;5079632;28;20048;-63
2023/09/30 05:55:34;;;;;;;6.57;3.47;;;;;;;;;;5083000;28;20040;-63
2023/09/30 05:58:02;;;;;;;8.10;4.10;;;;;;;;;;5084378;28;20056;-64
2023/09/30 06:00:34;;;;;;;6.47;4.32;;;;;;;;;;5084444;28;20106;-64
2023/09/30 06:03:04;;;;;;;7.03;3.75;;;;;;;;;;5080803;28;20052;-64
2023/09/30 06:05:32;;;;;;;5.95;4.03;;;;;;;;;;5082307;28;20148;-64
2023/09/30 06:08:02;;;;;;;9.18;4.53;;;;;;;;;;5081124;28;20076;-64
2023/09/30 06:10:31;;;;;;;6.32;3.53;;;;;;;;;;5079286;28;20044;-64
2023/09/30 06:13:02;;;;;;;10.13;4.40;;;;;;;;;;5081637;28;20048;-63
2023/09/30 06:15:31;;;;;;;6.50;3.72;;;;;;;;;;5080615;28;20044;-63
2023/09/30 06:18:00;;;;;;;4.93;3.55;;;;;;;;;;5083581;28;20052;-63
2023/09/30 06:20:30;;;;;;;8.15;3.55;;;;;;;;;;5084544;28;20101;-62
2023/09/30 06:23:00;;;;;;;6.00;4.15;;;;;;;;;;5083426;28;20050;-63
2023/09/30 06:25:30;;;;;;;5.65;3.38;;;;;;;;;;5083317;28;20050;-63
2023/09/30 06:27:58;;;;;;;5.13;3.40;;;;;;;;;;5081326;28;20076;-63
2023/09/30 06:30:30;;;;;;;7.22;4.20;;;;;;;;;;5082492;28;20044;-63
2023/09/30 06:33:00;;;;;;;5.32;3.70;;;;;;;;;;5080306;28;20062;-62
2023/09/30 06:35:34;;;;;;;6.30;3.92;;;;;;;;;;5081410;28;20044;-64
2023/09/30 06:38:03;;;;;;;6.53;4.20;;;;;;;;;;5078564;28;20051;-64
2023/09/30 06:40:31;;;;;;;6.15;3.53;;;;;;;;;;5083888;28;20052;-64
2023/09/30 06:43:01;;;;;;;4.88;3.65;;;;;;;;;;5078965;28;20056;-64
2023/09/30 06:45:32;;;;;;;4.72;3.55;;;;;;;;;;5080363;28;20056;-64
2023/09/30 06:48:01;;;;;;;5.00;3.28;;;;;;;;;;5083004;28;20130;-63
2023/09/30 06:50:31;;;;;;;8.07;4.03;;;;;;;;;;5080816;28;20052;-64
2023/09/30 06:53:00;;;;;;;5.75;3.40;;;;;;;;;;5081843;28;20059;-63
2023/09/30 06:55:31;;;;;;;4.43;3.10;;;;;;;;;;5081335;28;20475;-63
2023/09/30 06:58:00;;;;;;;4.07;3.03;;;;;;;;;;5081732;28;20043;-62
2023/09/30 07:00:30;;;;;;;5.85;3.53;;;;;;;;;;5078948;28;20047;-63
2023/09/30 07:03:00;;;;;;;5.72;3.38;;;;;;;;;;5079031;28;20535;-63
2023/09/30 07:05:29;;;;;;;5.68;3.17;;;;;;;;;;5078109;28;20058;-63
2023/09/30 07:07:57;;;;;;;5.03;3.42;;;;;;;;;;5079939;28;20127;-64
2023/09/30 07:10:26;;;;;;;5.57;3.67;;;;;;;;;;5077005;28;20040;-62
2023/09/30 07:12:54;;;;;;;3.90;2.80;;;;;;;;;;5081057;28;20048;-63
2023/09/30 07:15:22;;;;;;;4.35;3.03;;;;;;;;;;5080873;28;20050;-63
2023/09/30 07:17:52;;;;;;;4.53;3.33;;;;;;;;;;5083922;28;20142;-63
2023/09/30 07:20:22;;;;;;;3.97;2.67;;;;;;;;;;5086010;28;20086;-63
2023/09/30 07:22:50;;;;;;;3.85;2.90;;;;;;;;;;5074327;28;20503;-63
2023/09/30 07:25:34;;;;;;;3.85;2.78;;;;;;;;;;5082629;28;20452;-63
2023/09/30 07:28:03;;;;;;;4.15;2.88;;;;;;;;;;5077708;28;20141;-63
2023/09/30 07:30:31;;;;;;;5.00;3.15;;;;;;;;;;5079958;28;20048;-63
2023/09/30 07:33:01;;;;;;;4.53;2.97;;;;;;;;;;5079617;28;20047;-62
2023/09/30 07:35:29;;;;;;;3.15;2.53;;;;;;;;;;5079889;28;20414;-63
2023/09/30 07:37:58;;;;;;;4.93;3.00;;;;;;;;;;5076124;28;20143;-65
2023/09/30 07:40:27;;;;;;;3.10;2.38;;;;;;;;;;5080578;28;20069;-63
2023/09/30 07:42:56;;;;;;;3.40;2.08;;;;;;;;;;5080392;28;20048;-64
2023/09/30 07:45:24;;;;;;;4.90;2.97;;;;;;;;;;5079122;28;20036;-62
2023/09/30 07:47:53;;;;;;;3.42;2.40;;;;;;;;;;5077847;28;20082;-64
2023/09/30 07:50:22;;;;;;;3.40;2.42;;;;;;;;;;5078277;28;20048;-63
2023/09/30 07:52:51;;;;;;;3.25;2.35;;;;;;;;;;5080828;28;20043;-62
2023/09/30 07:55:19;;;;;;;2.97;2.35;;;;;;;;;;5082835;28;20484;-62
2023/09/30 07:57:48;;;;;;;3.53;2.55;;;;;;;;;;5076675;28;20147;-63
2023/09/30 08:00:16;;;;;;;2.90;2.60;;;;;;;;;;5073229;28;20048;-63
2023/09/30 08:02:45;;;;;;;3.13;2.53;;;;;;;;;;5077843;28;20675;-63
2023/09/30 08:05:14;;;;;;;2.80;2.50;;;;;;;;;;5076678;28;20584;-64
2023/09/30 08:07:45;;;;;;;4.82;3.08;;;;;;;;;;5077142;28;20459;-68
2023/09/30 08:10:16;;;;;;;3.50;3.03;;;;;;;;;;5079538;28;20094;-67
2023/09/30 08:12:48;;;;;;;4.10;2.63;;;;;;;;;;5073994;28;20382;-68
2023/09/30 08:15:17;;;;;;;4.07;2.67;;;;;;;;;;5082229;28;20040;-67
2023/09/30 08:17:45;;;;;;;4.55;2.95;;;;;;;;;;5079790;28;20090;-66
2023/09/30 08:20:14;;;;;;;4.10;2.95;;;;;;;;;;5080961;28;20056;-67
2023/09/30 08:22:44;;;;;;;4.38;2.90;;;;;;;;;;5077300;28;20048;-67
2023/09/30 08:25:13;;;;;;;5.85;3.35;;;;;;;;;;5079788;28;20543;-66
2023/09/30 08:27:42;;;;;;;4.40;2.83;;;;;;;;;;5081086;28;20129;-67
2023/09/30 08:30:10;;;;;;;5.20;3.53;;;;;;;;;;5082868;28;20075;-66
2023/09/30 08:32:39;;;;;;;4.80;3.20;;;;;;;;;;5079576;28;20052;-66
2023/09/30 08:35:09;;;;;;;3.17;2.67;;;;;;;;;;5083143;28;20056;-66
2023/09/30 08:37:38;;;;;;;5.00;3.30;;;;;;;;;;5083295;28;20048;-67
2023/09/30 08:40:09;;;;;;;5.35;3.50;;;;;;;;;;5081384;28;20053;-66
2023/09/30 08:42:40;;;;;;;3.88;2.58;;;;;;;;;;5085285;28;20048;-66
2023/09/30 08:45:11;;;;;;;5.75;3.55;;;;;;;;;;5084604;28;20051;-67
2023/09/30 08:47:42;;;;;;;4.45;2.65;;;;;;;;;;5083905;28;20052;-66
2023/09/30 08:50:10;;;;;;;4.95;2.67;;;;;;;;;;5087850;28;20059;-67
2023/09/30 08:52:39;;;;;;;5.07;3.15;;;;;;;;;;5083893;28;20139;-66
2023/09/30 08:55:10;;;;;;;3.63;2.75;;;;;;;;;;5083880;28;20045;-66
2023/09/30 08:57:40;;;;;;;2.97;2.28;;;;;;;;;;5084189;28;20131;-66
2023/09/30 09:00:12;;;;;;;3.75;2.70;;;;;;;;;;5087358;28;20055;-67
2023/09/30 09:02:41;;;;;;;4.70;2.90;;;;;;;;;;5085934;28;20122;-67
2023/09/30 09:05:11;;;;;;;4.85;3.50;;;;;;;;;;5086302;28;20474;-67
2023/09/30 09:07:40;;;;;;;3.53;2.50;;;;;;;;;;5085050;28;20105;-67
2023/09/30 09:10:13;;;;;;;3.17;2.40;;;;;;;;;;5085253;28;20049;-69
2023/09/30 09:12:42;;;;;;;4.13;2.60;;;;;;;;;;5086136;28;20047;-67
2023/09/30 09:15:21;;;;;;;3.78;2.72;;;;;;;;;;5086560;28;20562;-66
2023/09/30 09:17:51;;;;;;;3.97;2.53;;;;;;;;;;5087115;28;20048;-66
2023/09/30 09:20:21;;;;;;;4.50;2.80;;;;;;;;;;5086859;28;20075;-66
2023/09/30 09:22:53;;;;;;;4.15;2.40;;;;;;;;;;5082592;28;20044;-67
2023/09/30 09:25:23;;;;;;;2.85;2.28;;;;;;;;;;5088104;28;20093;-68
2023/09/30 09:27:53;;;;;;;2.60;2.20;;;;;;;;;;5084329;28;20435;-67
2023/09/30 09:30:24;;;;;;;2.58;2.25;;;;;;;;;;5087199;28;20036;-66
2023/09/30 09:32:57;;;;;;;3.22;2.58;;;;;;;;;;5082674;28;20075;-68
2023/09/30 09:35:28;;;;;;;2.10;1.90;;;;;;;;;;5083193;28;20625;-66
2023/09/30 09:37:57;;;;;;;4.22;2.47;;;;;;;;;;5080101;28;20083;-67
2023/09/30 09:40:30;;;;;;;2.92;2.63;;;;;;;;;;5082077;28;20052;-68
2023/09/30 09:42:59;;;;;;;2.92;2.42;;;;;;;;;;5085167;28;20048;-66
2023/09/30 09:45:32;;;;;;;2.42;2.17;;;;;;;;;;5085545;28;20052;-66
2023/09/30 09:48:01;;;;;;;2.88;2.15;;;;;;;;;;5086674;28;20044;-65
2023/09/30 09:50:31;;;;;;;3.13;2.42;;;;;;;;;;5078110;28;20393;-64
2023/09/30 09:53:01;;;;;;;3.17;2.25;;;;;;;;;;5078054;28;20052;-64
2023/09/30 09:55:30;;;;;;;2.85;2.28;;;;;;;;;;5088681;28;20123;-64
2023/09/30 09:57:59;;;;;;;3.17;2.15;;;;;;;;;;5079695;28;20056;-65
2023/09/30 10:00:30;;;;;;;3.70;2.70;;;;;;;;;;5078423;28;20055;-65
2023/09/30 10:02:58;;;;;;;2.67;2.40;;;;;;;;;;5079397;28;20044;-64
2023/09/30 10:05:28;;;;;;;2.97;2.35;;;;;;;;;;5085365;28;20044;-64
2023/09/30 10:07:59;;;;;;;2.83;2.28;;;;;;;;;;5086315;28;20040;-65
2023/09/30 10:10:28;;;;;;;2.35;1.98;;;;;;;;;;5083547;28;20081;-65
2023/09/30 10:12:58;;;;;;;2.35;2.00;;;;;;;;;;5081003;28;20112;-64
2023/09/30 10:15:40;;;;;;;4.35;1.80;;;;;;;;;;5073543;28;20522;-66
2023/09/30 10:18:10;;;;;;;2.67;2.30;;;;;;;;;;5077717;28;20144;-66
2023/09/30 10:20:47;;;;;;;2.30;2.00;;;;;;;;;;5081795;28;20040;-63
2023/09/30 10:23:20;;;;;;;2.05;1.88;;;;;;;;;;5079408;28;20056;-65
2023/09/30 10:25:50;;;;;;;2.28;2.00;;;;;;;;;;5080679;28;20306;-65
2023/09/30 10:28:37;;;;;;;2.97;2.67;;;;;;;;;;5081575;28;20052;-63
2023/09/30 10:31:13;;;;;;;2.17;2.05;;;;;;;;;;5080695;28;20051;-65
2023/09/30 10:34:00;;;;;;;2.70;2.25;;;;;;;;;;5080230;28;20500;-65
2023/09/30 10:36:29;;;;;;;3.83;2.17;;;;;;;;;;5080129;28;20493;-65
2023/09/30 10:38:58;;;;;;;2.63;2.10;;;;;;;;;;5075503;28;20056;-67
2023/09/30 10:41:50;;;;;;;2.10;1.60;;;;;;;;;;5074693;28;20134;-66
2023/09/30 10:44:37;;;;;;;2.80;1.88;;;;;;;;;;5078830;28;20078;-69
2023/09/30 10:47:25;;;;;;;2.05;1.95;;;;;;;;;;5076667;28;20051;-67
2023/09/30 10:49:54;;;;;;;2.53;1.85;;;;;;;;;;5070029;28;20048;-67
2023/09/30 10:52:24;;;;;;;4.30;1.98;;;;;;;;;;5072380;28;20041;-67
2023/09/30 10:54:53;;;;;;;2.30;2.03;;;;;;;;;;5068212;28;20524;-67
2023/09/30 10:57:29;;;;;;;2.42;2.00;;;;;;;;;;5077128;28;20139;-67
2023/09/30 11:00:11;;;;;;;2.10;1.90;;;;;;;;;;5080662;28;20159;-69
2023/09/30 11:02:50;;;;;;;3.67;1.92;;;;;;;;;;5082060;28;20550;-69
2023/09/30 11:05:20;;;;;;;2.97;2.42;;;;;;;;;;5094370;28;20459;-67
2023/09/30 11:08:04;;;;;;;2.30;2.05;;;;;;;;;;5082228;28;20508;-66
2023/09/30 11:10:33;;;;;;;2.33;1.88;;;;;;;;;;5078686;28;20072;-68
2023/09/30 11:13:01;;;;;;;3.30;2.03;;;;;;;;;;5071973;28;20102;-68
2023/09/30 11:15:31;;;;;;;2.92;2.10;;;;;;;;;;5066534;28;20059;-70
2023/09/30 11:18:14;;;;;;;3.47;2.10;;;;;;;;;;5071389;28;20056;-72
2023/09/30 11:20:43;;;;;;;3.58;2.15;;;;;;;;;;5078839;28;20043;-67
2023/09/30 11:23:11;;;;;;;2.70;2.15;;;;;;;;;;5079871;28;20076;-65
2023/09/30 11:25:41;;;;;;;2.10;1.88;;;;;;;;;;5072561;28;20052;-62
2023/09/30 11:28:16;;;;;;;2.72;2.22;;;;;;;;;;5066535;28;20131;-63
2023/09/30 11:30:44;;;;;;;;;;;;;;;;;;5078060;28;20090;-64
2023/09/30 11:33:14;;;;;;;2.78;2.30;;;;;;;;;;5077379;28;20400;-65
2023/09/30 11:35:42;;;;;;;4.43;3.00;;;;;;;;;;5078338;28;20040;-62
2023/09/30 11:38:11;;;;;;;5.72;5.13;;;;;;;;;;5075943;28;20048;-66
2023/09/30 11:40:39;;;;;;;3.63;2.70;;;;;;;;;;5078345;28;20052;-63
2023/09/30 11:43:11;;;;;;;3.83;2.90;;;;;;;;;;5080517;28;20048;-62
2023/09/30 11:45:41;;;;;;;5.00;3.38;;;;;;;;;;5083166;28;20072;-62
2023/09/30 11:48:20;;;;;;;3.90;2.88;;;;;;;;;;5081773;28;20044;-63
2023/09/30 11:50:49;;;;;;;3.90;2.70;;;;;;;;;;5080121;28;20070;-65
2023/09/30 11:53:20;;;;;;;3.30;2.33;;;;;;;;;;5087925;28;20043;-63
2023/09/30 11:55:49;;;;;;;3.17;2.40;;;;;;;;;;5085156;28;20089;-63
2023/09/30 11:58:19;;;;;;;3.60;2.50;;;;;;;;;;5082113;28;20141;-63
2023/09/30 12:00:50;;;;;;;3.50;2.53;;;;;;;;;;5081161;28;20125;-64
2023/09/30 12:03:21;;;;;;;3.80;2.53;;;;;;;;;;5083272;28;20058;-64
2023/09/30 12:05:50;;;;;;;3.63;2.63;;;;;;;;;;5084037;28;20052;-63
2023/09/30 12:08:19;;;;;;;3.25;2.75;;;;;;;;;;5085011;28;20093;-64
2023/09/30 12:10:47;;;;;;;3.72;2.90;;;;;;;;;;5082393;28;20067;-63
2023/09/30 12:13:15;;;;;;;4.00;3.17;;;;;;;;;;5082449;28;20048;-63
2023/09/30 12:15:44;;;;;;;4.40;3.10;;;;;;;;;;5084614;28;20100;-63
2023/09/30 12:18:16;;;;;;;3.85;3.05;;;;;;;;;;5090663;28;20071;-63
2023/09/30 12:20:46;;;;;;;3.47;3.08;;;;;;;;;;5087708;28;20117;-62
2023/09/30 12:23:17;;;;;;;4.00;2.50;;;;;;;;;;5084275;28;20052;-64
2023/09/30 12:25:46;;;;;;;5.38;3.40;;;;;;;;;;5085012;28;20550;-66
2023/09/30 12:28:27;;;;;;;3.67;2.80;;;;;;;;;;5087458;28;20048;-63
2023/09/30 12:30:55;;;;;;;4.57;3.08;;;;;;;;;;5086325;28;20044;-68
2023/09/30 12:33:24;;;;;;;4.28;3.13;;;;;;;;;;5088656;28;20416;-62
2023/09/30 12:35:54;;;;;;;4.25;3.13;;;;;;;;;;5082063;28;20067;-62
2023/09/30 12:38:22;;;;;;;4.22;3.08;;;;;;;;;;5083755;28;20045;-63
2023/09/30 12:40:51;;;;;;;4.43;3.45;;;;;;;;;;5081793;28;20159;-62
2023/09/30 12:43:19;;;;;;;3.60;2.65;;;;;;;;;;5085439;28;20485;-61
2023/09/30 12:45:48;;;;;;;3.28;2.65;;;;;;;;;;5081267;28;20071;-62
2023/09/30 12:48:17;;;;;;;3.92;3.00;;;;;;;;;;5088079;28;20100;-62
2023/09/30 12:50:45;;;;;;;4.22;2.97;;;;;;;;;;5084384;28;20089;-62
2023/09/30 12:53:15;;;;;;;4.60;2.92;;;;;;;;;;5084975;28;20476;-64
2023/09/30 12:55:44;;;;;;;5.38;3.00;;;;;;;;;;5081889;28;20044;-61
2023/09/30 12:58:12;;;;;;;5.20;2.88;;;;;;;;;;5087189;28;20044;-61
2023/09/30 13:00:41;;;;;;;6.15;2.97;;;;;;;;;;5084775;28;20075;-63
2023/09/30 13:03:10;;;;;;;4.25;3.00;;;;;;;;;;5084784;28;20759;-64
2023/09/30 13:05:38;;;;;;;5.88;3.58;;;;;;;;;;5077797;28;20047;-62
2023/09/30 13:08:11;;;;;;;4.28;3.28;;;;;;;;;;5082052;28;20062;-63
2023/09/30 13:10:40;;;;;;;4.32;3.40;;;;;;;;;;5085414;28;20501;-64
2023/09/30 13:13:09;;;;;;;4.95;3.40;;;;;;;;;;5083879;28;20493;-64
2023/09/30 13:15:38;;;;;;;6.15;3.88;;;;;;;;;;5084982;28;20048;-63
2023/09/30 13:18:07;;;;;;;4.47;3.42;;;;;;;;;;5079847;28;20047;-63
2023/09/30 13:20:35;;;;;;;5.32;3.42;;;;;;;;;;5081534;28;20552;-63
2023/09/30 13:23:04;;;;;;;4.90;3.40;;;;;;;;;;5085292;28;20069;-63
2023/09/30 13:25:32;;;;;;;5.10;3.55;;;;;;;;;;5086024;28;20593;-62
2023/09/30 13:28:02;;;;;;;5.53;3.70;;;;;;;;;;5082462;28;20097;-63
2023/09/30 13:30:31;;;;;;;5.80;4.18;;;;;;;;;;5080947;28;20052;-63
2023/09/30 13:33:00;;;;;;;5.05;4.13;;;;;;;;;;5080611;28;20063;-63
2023/09/30 13:35:28;;;;;;;4.57;3.97;;;;;;;;;;5086317;28;20044;-62
2023/09/30 13:37:57;;;;;;;4.15;3.30;;;;;;;;;;5081665;28;20048;-65
2023/09/30 13:40:25;;;;;;;5.38;3.40;;;;;;;;;;5080762;28;20110;-64
2023/09/30 13:42:54;;;;;;;6.30;4.03;;;;;;;;;;5084136;28;20051;-63
2023/09/30 13:45:24;;;;;;;5.50;3.58;;;;;;;;;;5086768;28;20429;-63
2023/09/30 13:47:52;;;;;;;6.22;4.05;;;;;;;;;;5084756;28;20048;-62
2023/09/30 13:50:20;;;;;;;4.57;3.38;;;;;;;;;;5078105;28;20122;-62
2023/09/30 13:52:49;;;;;;;4.50;3.63;;;;;;;;;;5084004;27;20056;-64
2023/09/30 13:55:19;;;;;;;5.20;4.00;;;;;;;;;;5083015;28;20058;-66
2023/09/30 13:57:47;;;;;;;4.95;3.65;;;;;;;;;;5083478;28;20052;-63
2023/09/30 14:00:16;;;;;;;5.07;4.00;;;;;;;;;;5081007;28;20109;-63
2023/09/30 14:02:46;;;;;;;5.65;3.85;;;;;;;;;;5080168;28;20070;-62
2023/09/30 14:05:15;;;;;;;5.88;3.92;;;;;;;;;;5079285;28;20048;-65
2023/09/30 14:07:44;;;;;;;4.75;3.53;;;;;;;;;;5076732;28;20043;-64
2023/09/30 14:10:13;;;;;;;4.90;4.18;;;;;;;;;;5081316;28;20500;-62
2023/09/30 14:12:42;;;;;;;5.47;4.00;;;;;;;;;;5079273;28;20051;-63
2023/09/30 14:15:12;;;;;;;6.30;4.03;;;;;;;;;;5077962;28;20047;-63
2023/09/30 14:17:41;;;;;;;3.70;3.33;;;;;;;;;;5081592;28;20129;-63
2023/09/30 14:20:12;;;;;;;4.60;3.67;;;;;;;;;;5078851;28;20151;-63
2023/09/30 14:22:40;;;;;;;6.22;3.80;;;;;;;;;;5075555;28;20092;-62
2023/09/30 14:25:09;;;;;;;4.75;3.83;;;;;;;;;;5076831;28;21349;-62
2023/09/30 14:27:38;;;;;;;3.92;3.47;;;;;;;;;;5078326;28;20050;-62
2023/09/30 14:30:07;;;;;;;4.93;3.55;;;;;;;;;;5074828;28;20051;-63
2023/09/30 14:32:37;;;;;;;4.40;3.40;;;;;;;;;;5079685;28;20473;-65
2023/09/30 14:35:06;;;;;;;4.13;3.70;;;;;;;;;;5083682;28;20044;-62
2023/09/30 14:37:36;;;;;;;4.68;3.42;;;;;;;;;;5083550;28;20048;-63
2023/09/30 14:40:05;;;;;;;4.40;3.25;;;;;;;;;;5078697;28;20112;-63
2023/09/30 14:42:34;;;;;;;5.03;3.70;;;;;;;;;;5079466;28;20055;-62
2023/09/30 14:45:02;;;;;;;4.82;3.55;;;;;;;;;;5083325;28;20518;-65
2023/09/30 14:47:31;;;;;;;4.68;3.53;;;;;;;;;;5076717;28;20496;-63
2023/09/30 14:50:01;;;;;;;4.28;3.25;;;;;;;;;;5078052;28;20055;-63
2023/09/30 14:52:29;;;;;;;5.85;3.85;;;;;;;;;;5081967;28;20044;-64
2023/09/30 14:55:00;;;;;;;5.85;3.90;;;;;;;;;;5075235;28;20093;-64
2023/09/30 14:57:29;;;;;;;4.30;3.38;;;;;;;;;;5079060;28;20071;-63